Pereiaslavskyi — UUBF2 — position and weather

sailwx.info

Track history (hours):
 
Tides and Currents Weather Stations Pressure Air Temp Water Temp Dewpoint Dewpoint Depression Visibility Wind Speed Wind Dir Waves Ship Positions

Pereiaslavskyi

Last reported at 2017-Dec-22 19:26 UTC. Time now 2018-Feb-25 13:57 UTC.
Position N 46°32' E 032°08'.
Warning: this ship's position is months out of date.

Length 28 m; draft 1.7 m.

Type: Tug. MMSI: 272743000.

Date/timePositionNaut miles runAvg speedWind from/ knotsBaromVisibWave heightAir tempDewpointWater temp
2017-Dec-22 19:26N 46°32' E 032°08'2 3.5
2017-Dec-22 18:57N 46°32' E 032°06'2 3.7
2017-Dec-22 18:30N 46°33' E 032°04'2 3.8
2017-Dec-22 18:00N 46°34' E 032°02'2 3.8
2017-Dec-22 17:31N 46°36' E 032°00'2 3.8
2017-Dec-22 17:00N 46°37' E 031°58'2 3.8
2017-Dec-22 16:30N 46°39' E 031°57'2 3.7
2017-Dec-22 16:00N 46°40' E 031°56'2 3.9
2017-Dec-22 15:31N 46°42' E 031°56'2 3.8
2017-Dec-22 15:00N 46°44' E 031°55'2 3.7
2017-Dec-22 14:30N 46°45' E 031°53'2 4.0
2017-Dec-22 14:00N 46°47' E 031°53'2 3.7
2017-Dec-22 13:30N 46°49' E 031°54'2 3.9
2017-Dec-22 13:00N 46°51' E 031°56'2 3.9
2017-Dec-22 12:31N 46°52' E 031°58'2 3.8
2017-Dec-22 12:01N 46°53' E 032°00'2 3.8
2017-Dec-22 11:30N 46°55' E 032°01'2 3.3
2017-Dec-22 11:00N 46°56' E 031°59'1 1.0
2017-Dec-22 10:30N 46°57' E 031°59'0 0.0
2017-Dec-22 10:00N 46°57' E 031°59'0 0.1
2017-Dec-22 09:31N 46°57' E 031°59'0 0.1
2017-Dec-22 09:00N 46°57' E 031°59'0 0.0
2017-Dec-22 08:30N 46°57' E 031°59'0 0.0
2017-Dec-22 08:00N 46°57' E 031°59'0 0.0
2017-Dec-22 07:30N 46°57' E 031°59'0 0.0
2017-Dec-22 07:00N 46°57' E 031°59'0 0.0
2017-Dec-22 06:30N 46°57' E 031°59'0 0.1
2017-Dec-22 06:00N 46°57' E 031°59'0 0.5
2017-Dec-22 05:31N 46°57' E 031°59'0 0.0
2017-Dec-22 05:01N 46°57' E 031°59'0 0.5
2017-Dec-22 04:30N 46°57' E 031°59'0 0.3
2017-Dec-22 04:00N 46°57' E 031°59'0 0.2
2017-Dec-22 03:30N 46°57' E 031°59'0 0.2
2017-Dec-22 03:01N 46°57' E 031°59'0 0.0
2017-Dec-22 02:30N 46°57' E 031°59'0 0.0
2017-Dec-22 02:00N 46°57' E 031°59'0 0.0
2017-Dec-22 01:31N 46°57' E 031°59'0 0.0
2017-Dec-22 01:00N 46°57' E 031°59'0 0.0
2017-Dec-22 00:30N 46°57' E 031°59'0 0.0
2017-Dec-22 00:01N 46°57' E 031°59'0 0.0
2017-Dec-21 23:31N 46°57' E 031°59'0 0.0
2017-Dec-21 23:00N 46°57' E 031°59'0 0.0
2017-Dec-21 22:30N 46°57' E 031°59'0 0.0
2017-Dec-21 22:00N 46°57' E 031°59'0 0.0
2017-Dec-21 21:30N 46°57' E 031°59'0 0.0
2017-Dec-21 21:01N 46°57' E 031°59'0 0.0
2017-Dec-21 20:31N 46°57' E 031°59'0 0.4
2017-Dec-21 20:00N 46°57' E 031°59'0 0.4
2017-Dec-21 19:30N 46°56' E 031°59'0 0.7
2017-Dec-21 19:01N 46°56' E 031°58'0 0.1
2017-Dec-21 18:30N 46°56' E 031°58'1 1.3
2017-Dec-21 18:00N 46°57' E 031°59'0 0.0
2017-Dec-21 17:30N 46°57' E 031°59'0 0.0
2017-Dec-21 17:01N 46°57' E 031°59'0 0.0
2017-Dec-21 16:31N 46°57' E 031°59'0 0.0
2017-Dec-21 16:00N 46°57' E 031°59'0 0.0
2017-Dec-21 15:30N 46°57' E 031°59'0 0.0
2017-Dec-21 15:00N 46°57' E 031°59'0 0.0
2017-Dec-21 14:30N 46°57' E 031°59'0 0.0
2017-Dec-21 14:00N 46°57' E 031°59'0 0.0
2017-Dec-21 13:30N 46°57' E 031°59'0 0.0
2017-Dec-21 13:00N 46°57' E 031°59'0 0.1
2017-Dec-21 12:30N 46°57' E 031°59'0 0.2
2017-Dec-21 12:00N 46°57' E 031°59'0 0.0
2017-Dec-21 11:30N 46°57' E 031°59'0 0.0
2017-Dec-21 11:00N 46°57' E 031°59'0 0.0
2017-Dec-21 10:30N 46°57' E 031°59'0 0.0
2017-Dec-21 10:00N 46°57' E 031°59'0 0.0
2017-Dec-21 09:31N 46°57' E 031°59'0 0.0
2017-Dec-21 09:00N 46°57' E 031°59'0 0.2
2017-Dec-21 08:30N 46°56' E 031°59'0 0.3
2017-Dec-21 08:00N 46°56' E 031°59'1 1.0
2017-Dec-21 07:30N 46°56' E 031°58'1 2.4
2017-Dec-21 07:01N 46°56' E 031°57'1 2.8
2017-Dec-21 06:30N 46°56' E 031°55'1 2.9
2017-Dec-21 06:01N 46°58' E 031°56'2 3.1
2017-Dec-21 05:31N 46°59' E 031°58'1 2.8
2017-Dec-21 05:01N 47°00' E 031°59'2 2.1
2017-Dec-21 04:18N 47°01' E 031°57'2 3.1
2017-Dec-21 03:46N 46°60' E 031°55'0 0.0
2017-Dec-19 15:11N 46°60' E 031°54'1 3.0
2017-Dec-19 14:51N 47°00' E 031°56'2 2.7
2017-Dec-19 14:12N 47°01' E 031°58'1 2.9
2017-Dec-19 14:00N 47°00' E 031°58'1 1.2
2017-Dec-19 13:31N 46°60' E 031°59'0 0.0
2017-Dec-19 13:01N 46°60' E 031°59'1 1.9
2017-Dec-19 12:30N 46°59' E 031°58'1 1.5
2017-Dec-19 12:00N 46°59' E 031°58'1 1.6
2017-Dec-19 11:30N 46°59' E 031°58'1 1.1
2017-Dec-19 11:01N 46°59' E 031°57'2 3.5
2017-Dec-19 10:30N 46°57' E 031°55'2 3.1
2017-Dec-19 10:00N 46°56' E 031°56'1 3.0
2017-Dec-19 09:30N 46°56' E 031°58'1 1.6
2017-Dec-19 09:01N 46°56' E 031°59'0 0.1
2017-Dec-19 08:31N 46°56' E 031°59'0 0.8
2017-Dec-19 08:00N 46°57' E 031°59'0 0.0
2017-Dec-19 07:30N 46°57' E 031°59'0 0.0
2017-Dec-19 07:01N 46°57' E 031°59'0 0.0
2017-Dec-19 06:31N 46°57' E 031°59'0 0.5
2017-Dec-19 06:00N 46°56' E 031°59'0 0.5
2017-Dec-19 05:30N 46°57' E 031°59'0 0.0
2017-Dec-19 05:00N 46°57' E 031°59'0 0.0
2017-Dec-19 04:30N 46°57' E 031°59'0 0.0
2017-Dec-19 04:00N 46°57' E 031°59'0 0.0
2017-Dec-19 03:30N 46°57' E 031°59'0 0.0
2017-Dec-19 03:01N 46°57' E 031°59'0 0.0
2017-Dec-19 02:31N 46°57' E 031°59'0 0.0
2017-Dec-19 02:00N 46°57' E 031°59'0 0.0
2017-Dec-19 01:30N 46°57' E 031°59'0 0.2
2017-Dec-19 01:00N 46°57' E 031°59'0 0.3
2017-Dec-19 00:30N 46°57' E 031°59'0 0.1
2017-Dec-19 00:00N 46°57' E 031°59'0 0.0
2017-Dec-18 23:31N 46°57' E 031°59'0 0.0
2017-Dec-18 23:01N 46°57' E 031°59'0 0.0
2017-Dec-18 22:31N 46°57' E 031°59'0 0.0
2017-Dec-18 22:01N 46°57' E 031°59'0 0.0
2017-Dec-18 21:30N 46°57' E 031°59'0 0.0
2017-Dec-18 21:00N 46°57' E 031°59'0 0.0
2017-Dec-18 13:39N 46°57' E 031°59'0 0.0
2017-Dec-18 13:31N 46°57' E 031°59'0 0.0
2017-Dec-18 13:00N 46°57' E 031°59'0 0.0
2017-Dec-18 12:30N 46°57' E 031°59'0 0.0
2017-Dec-18 12:00N 46°57' E 031°59'0 0.0
2017-Dec-18 11:31N 46°57' E 031°59'0 0.0
2017-Dec-18 11:00N 46°57' E 031°59'0 0.0
2017-Dec-18 10:30N 46°57' E 031°59'0 0.5
2017-Dec-18 10:00N 46°57' E 031°59'0 0.1
2017-Dec-18 09:30N 46°57' E 031°59'0 0.3
2017-Dec-18 09:01N 46°56' E 031°59'0 1.0
2017-Dec-18 08:30N 46°57' E 031°59'1 1.0
2017-Dec-18 08:00N 46°57' E 031°59'0 0.1
2017-Dec-18 07:31N 46°57' E 031°59'0 0.1
2017-Dec-18 07:01N 46°57' E 031°59'0 0.0
2017-Dec-18 06:30N 46°57' E 031°59'0 0.0
2017-Dec-18 06:01N 46°57' E 031°59'0 0.0
2017-Dec-18 05:30N 46°57' E 031°59'0 0.0
2017-Dec-18 05:00N 46°57' E 031°59'0 0.0
2017-Dec-18 04:30N 46°57' E 031°59'0 0.0
2017-Dec-18 04:00N 46°57' E 031°59'0 0.0
2017-Dec-18 03:30N 46°57' E 031°59'0 0.0
2017-Dec-18 03:01N 46°57' E 031°59'0 0.0
2017-Dec-18 02:30N 46°57' E 031°59'0 0.0
2017-Dec-18 02:01N 46°57' E 031°59'0 0.0
2017-Dec-18 01:31N 46°57' E 031°59'0 0.0
2017-Dec-18 01:00N 46°57' E 031°59'0 0.0
2017-Dec-18 00:30N 46°57' E 031°59'0 0.0
2017-Dec-18 00:01N 46°57' E 031°59'0 0.0
2017-Dec-17 23:30N 46°57' E 031°59'0 0.0
2017-Dec-17 23:00N 46°57' E 031°59'0 0.0
2017-Dec-17 22:30N 46°57' E 031°59'0 0.0
2017-Dec-17 22:00N 46°57' E 031°59'0 0.0
2017-Dec-17 21:30N 46°57' E 031°59'0 0.0
2017-Dec-17 21:00N 46°57' E 031°59'0 0.0
2017-Dec-17 20:31N 46°57' E 031°59'0 0.0
2017-Dec-17 20:00N 46°57' E 031°59'0 0.0
2017-Dec-17 19:31N 46°57' E 031°59'0 0.0
2017-Dec-17 19:00N 46°57' E 031°59'0 0.0
2017-Dec-17 18:31N 46°57' E 031°59'0 0.0
2017-Dec-17 18:01N 46°57' E 031°59'0 0.0
2017-Dec-17 17:30N 46°57' E 031°59'0 0.0
2017-Dec-17 17:01N 46°57' E 031°59'0 0.0
2017-Dec-17 16:30N 46°57' E 031°59'0 0.0
2017-Dec-17 16:00N 46°57' E 031°59'0 0.0
2017-Dec-17 15:31N 46°57' E 031°59'0 0.0
2017-Dec-17 15:00N 46°57' E 031°59'0 0.0
2017-Dec-17 14:30N 46°57' E 031°59'0 0.0
2017-Dec-17 14:00N 46°57' E 031°59'0 0.0
2017-Dec-17 13:30N 46°57' E 031°59'0 0.0
2017-Dec-17 13:01N 46°57' E 031°59'0 0.0
2017-Dec-17 12:30N 46°57' E 031°59'0 0.0
2017-Dec-17 12:00N 46°57' E 031°59'0 0.0
2017-Dec-17 11:30N 46°57' E 031°59'0 0.4
2017-Dec-17 11:00N 46°57' E 031°59'0 0.6
2017-Dec-17 10:31N 46°56' E 031°59'0 0.4
2017-Dec-17 10:01N 46°56' E 031°59'0 0.3
2017-Dec-17 09:31N 46°57' E 031°59'0 0.0
2017-Dec-17 09:00N 46°57' E 031°59'0 0.5
2017-Dec-17 08:30N 46°57' E 031°59'0 0.0
2017-Dec-17 08:00N 46°57' E 031°59'0 0.0
2017-Dec-17 07:30N 46°57' E 031°59'0 0.0
2017-Dec-17 07:00N 46°57' E 031°59'0 0.0
2017-Dec-17 06:31N 46°57' E 031°59'0 0.0
2017-Dec-17 06:01N 46°57' E 031°59'0 0.0
2017-Dec-17 05:30N 46°57' E 031°59'0 0.0
2017-Dec-17 05:00N 46°57' E 031°59'0 0.0
2017-Dec-17 04:30N 46°57' E 031°59'0 0.0
2017-Dec-17 04:00N 46°57' E 031°59'0 0.0
2017-Dec-17 03:31N 46°57' E 031°59'0 0.0
2017-Dec-17 03:00N 46°57' E 031°59'0 0.0
2017-Dec-17 02:31N 46°57' E 031°59'0 0.0
2017-Dec-17 02:01N 46°57' E 031°59'0 0.0
2017-Dec-17 01:30N 46°57' E 031°59'0 0.0
2017-Dec-17 01:00N 46°57' E 031°59'0 0.0
2017-Dec-17 00:31N 46°57' E 031°59'0 0.0
2017-Dec-17 00:01N 46°57' E 031°59'0 0.0
2017-Dec-16 23:30N 46°57' E 031°59'0 0.0
2017-Dec-16 23:00N 46°57' E 031°59'0 0.0
2017-Dec-16 22:31N 46°57' E 031°59'0 0.0
2017-Dec-16 22:00N 46°57' E 031°59'0 0.0
2017-Dec-16 21:30N 46°57' E 031°59'0 0.3
2017-Dec-16 21:01N 46°56' E 031°59'0 0.3
2017-Dec-16 20:31N 46°57' E 031°59'0 0.0
2017-Dec-16 20:01N 46°57' E 031°59'0 0.0
2017-Dec-16 19:30N 46°57' E 031°59'0 0.0
2017-Dec-16 19:00N 46°57' E 031°59'0 0.0
2017-Dec-16 18:30N 46°57' E 031°59'0 0.0
2017-Dec-16 18:00N 46°57' E 031°59'0 0.0
2017-Dec-16 17:30N 46°57' E 031°59'0 0.0
2017-Dec-16 17:00N 46°57' E 031°59'0 0.0
2017-Dec-16 16:30N 46°57' E 031°59'0 0.0
2017-Dec-16 16:00N 46°57' E 031°59'0 0.0
2017-Dec-16 15:31N 46°57' E 031°59'0 0.0
2017-Dec-16 15:00N 46°57' E 031°59'0 0.0
2017-Dec-16 14:30N 46°57' E 031°59'0 0.0
2017-Dec-16 14:00N 46°57' E 031°59'0 0.3
2017-Dec-16 13:30N 46°56' E 031°59'0 0.3
2017-Dec-16 13:01N 46°57' E 031°59'0 0.0
2017-Dec-16 12:31N 46°57' E 031°59'0 0.0
2017-Dec-16 12:01N 46°57' E 031°59'0 0.4
2017-Dec-16 11:30N 46°56' E 031°59'0 0.4
2017-Dec-16 11:01N 46°57' E 031°59'0 0.0
2017-Dec-16 10:31N 46°57' E 031°59'0 0.0
2017-Dec-16 10:00N 46°57' E 031°59'0 0.0
2017-Dec-16 09:30N 46°57' E 031°59'0 0.0
2017-Dec-16 09:01N 46°57' E 031°59'0 0.0
2017-Dec-16 08:30N 46°57' E 031°59'0 0.0
2017-Dec-16 08:01N 46°57' E 031°59'0 0.0
2017-Dec-16 07:30N 46°57' E 031°59'0 0.0
2017-Dec-16 07:01N 46°57' E 031°59'0 0.0
2017-Dec-16 06:31N 46°57' E 031°59'0 0.0
2017-Dec-16 06:00N 46°57' E 031°59'0 0.0
2017-Dec-16 05:30N 46°57' E 031°59'0 0.0
2017-Dec-16 05:00N 46°57' E 031°59'0 0.0
2017-Dec-16 04:30N 46°57' E 031°59'0 0.0
2017-Dec-16 04:00N 46°57' E 031°59'0 0.0
2017-Dec-16 03:31N 46°57' E 031°59'0 0.0
2017-Dec-16 03:00N 46°57' E 031°59'0 0.0
2017-Dec-16 02:30N 46°57' E 031°59'0 0.0
2017-Dec-16 02:00N 46°57' E 031°59'0 0.0
2017-Dec-16 01:30N 46°57' E 031°59'0 0.0
2017-Dec-16 01:00N 46°57' E 031°59'0 0.0
2017-Dec-16 00:30N 46°57' E 031°59'0 0.0
2017-Dec-16 00:00N 46°57' E 031°59'0 0.0
2017-Dec-15 23:30N 46°57' E 031°59'0 0.0
2017-Dec-15 23:00N 46°57' E 031°59'0 0.0
2017-Dec-15 22:30N 46°57' E 031°59'0 0.0
2017-Dec-15 22:00N 46°57' E 031°59'0 0.0
2017-Dec-15 21:31N 46°57' E 031°59'0 0.0
2017-Dec-15 21:00N 46°57' E 031°59'0 0.0
2017-Dec-15 20:30N 46°57' E 031°59'0 0.0
2017-Dec-15 20:00N 46°57' E 031°59'0 0.0
2017-Dec-15 19:31N 46°57' E 031°59'0 0.0
2017-Dec-15 19:01N 46°57' E 031°59'0 0.0
2017-Dec-15 18:30N 46°57' E 031°59'0 0.0
2017-Dec-15 18:00N 46°57' E 031°59'0 0.0
2017-Dec-15 17:31N 46°57' E 031°59'0 0.0
2017-Dec-15 17:01N 46°57' E 031°59'0 0.0
2017-Dec-15 16:31N 46°57' E 031°59'0 0.5
2017-Dec-15 16:01N 46°57' E 031°59'0 0.6
2017-Dec-15 15:31N 46°57' E 031°60'1 1.2
2017-Dec-15 15:01N 46°57' E 031°59'0 0.1
2017-Dec-15 14:30N 46°57' E 031°59'0 0.5
2017-Dec-15 14:00N 46°57' E 031°59'0 0.0
2017-Dec-15 13:31N 46°57' E 031°59'0 1.0
2017-Dec-15 13:01N 46°57' E 031°60'0 0.4
2017-Dec-15 12:31N 46°57' E 031°60'0 0.8
2017-Dec-15 12:00N 46°57' E 031°59'0 0.1
2017-Dec-15 11:30N 46°57' E 031°59'0 0.0
2017-Dec-15 11:00N 46°57' E 031°59'0 0.0
2017-Dec-15 10:30N 46°57' E 031°59'0 0.0
2017-Dec-15 10:00N 46°57' E 031°59'0 0.0
2017-Dec-15 09:30N 46°57' E 031°59'0 0.0
2017-Dec-15 09:00N 46°57' E 031°59'0 0.0
2017-Dec-15 08:30N 46°57' E 031°59'0 0.0
2017-Dec-15 08:00N 46°57' E 031°59'0 0.0
2017-Dec-15 07:30N 46°57' E 031°59'0 0.0
2017-Dec-15 07:00N 46°57' E 031°59'0 0.0
2017-Dec-15 06:31N 46°57' E 031°59'0 0.0
2017-Dec-15 06:00N 46°57' E 031°59'0 0.0
2017-Dec-15 05:31N 46°57' E 031°59'0 0.0
2017-Dec-15 05:00N 46°57' E 031°59'0 0.0
2017-Dec-15 04:30N 46°57' E 031°59'0 0.0
2017-Dec-15 04:00N 46°57' E 031°59'0 0.0
2017-Dec-15 02:30N 46°57' E 031°59'0 0.0
2017-Dec-15 01:01N 46°57' E 031°59'0 0.0
2017-Dec-15 00:30N 46°57' E 031°59'0 0.0
2017-Dec-14 18:31N 46°57' E 031°59'0 0.0
2017-Dec-14 18:00N 46°57' E 031°59'0 0.0
2017-Dec-14 17:30N 46°57' E 031°59'0 0.0
2017-Dec-14 17:00N 46°57' E 031°59'0 0.0
2017-Dec-14 16:30N 46°57' E 031°59'0 0.0
2017-Dec-14 16:01N 46°57' E 031°59'0 0.0
2017-Dec-14 15:01N 46°57' E 031°59'0 0.0
2017-Dec-14 14:30N 46°57' E 031°59'0 0.0
2017-Dec-14 14:01N 46°57' E 031°59'0 0.0
2017-Dec-14 13:30N 46°57' E 031°59'0 0.3
2017-Dec-14 13:01N 46°57' E 031°59'0 0.2
2017-Dec-14 12:31N 46°57' E 031°59'0 0.4
2017-Dec-14 12:00N 46°57' E 031°59'0 0.0
2017-Dec-14 11:30N 46°57' E 031°59'0 0.0
2017-Dec-14 11:00N 46°57' E 031°59'0 0.0
2017-Dec-14 10:30N 46°57' E 031°59'0 0.0
2017-Dec-14 10:00N 46°57' E 031°59'0 0.0
2017-Dec-14 09:31N 46°57' E 031°59'0 0.0
2017-Dec-14 09:00N 46°57' E 031°59'0 0.0
2017-Dec-14 08:31N 46°57' E 031°59'0 0.0
2017-Dec-14 08:01N 46°57' E 031°59'0 0.0
2017-Dec-14 07:30N 46°57' E 031°59'0 0.0
2017-Dec-14 07:00N 46°57' E 031°59'0 0.0
2017-Dec-14 06:31N 46°57' E 031°59'0 0.0
2017-Dec-14 06:00N 46°57' E 031°59'0 0.0
2017-Dec-14 05:30N 46°57' E 031°59'0 0.0
2017-Dec-14 05:00N 46°57' E 031°59'0 0.0
2017-Dec-14 04:31N 46°57' E 031°59'0 0.0
2017-Dec-14 04:00N 46°57' E 031°59'0 0.0
2017-Dec-14 03:31N 46°57' E 031°59'0 0.0
2017-Dec-14 03:00N 46°57' E 031°59'0 0.0
2017-Dec-14 02:30N 46°57' E 031°59'0 0.0
2017-Dec-14 02:00N 46°57' E 031°59'0 0.0
2017-Dec-14 01:30N 46°57' E 031°59'0 0.0
2017-Dec-14 01:00N 46°57' E 031°59'0 0.0
2017-Dec-14 00:30N 46°57' E 031°59'0 0.0
2017-Dec-14 00:00N 46°57' E 031°59'0 0.0
2017-Dec-13 23:31N 46°57' E 031°59'0 0.0
2017-Dec-13 23:01N 46°57' E 031°59'0 0.0
2017-Dec-13 22:30N 46°57' E 031°59'0 0.0
2017-Dec-13 22:00N 46°57' E 031°59'0 0.0
2017-Dec-13 21:30N 46°57' E 031°59'0 0.0
2017-Dec-13 21:01N 46°57' E 031°59'0 0.0
2017-Dec-13 20:30N 46°57' E 031°59'0 0.0
2017-Dec-13 20:00N 46°57' E 031°59'0 0.0
2017-Dec-13 19:31N 46°57' E 031°59'0 0.0
2017-Dec-13 19:01N 46°57' E 031°59'0 0.0
2017-Dec-13 18:30N 46°57' E 031°59'0 0.0
2017-Dec-13 18:00N 46°57' E 031°59'0 0.1
2017-Dec-13 17:31N 46°57' E 031°59'0 0.3
2017-Dec-13 17:00N 46°56' E 031°59'0 0.3
2017-Dec-13 16:30N 46°57' E 031°59'0 0.0
2017-Dec-13 16:01N 46°57' E 031°59'0 0.0
2017-Dec-13 15:30N 46°57' E 031°59'0 0.0
2017-Dec-13 15:01N 46°57' E 031°59'0 0.0
2017-Dec-13 14:31N 46°57' E 031°59'0 0.4
2017-Dec-13 14:01N 46°57' E 031°59'0 0.8
2017-Dec-13 13:31N 46°56' E 031°59'0 0.2
2017-Dec-13 13:01N 46°56' E 031°59'0 0.4
2017-Dec-13 12:30N 46°56' E 031°59'0 0.5
2017-Dec-13 12:00N 46°57' E 031°59'0 0.6
2017-Dec-13 11:30N 46°57' E 031°59'0 0.6
2017-Dec-13 11:00N 46°57' E 031°60'0 0.7
2017-Dec-13 10:31N 46°57' E 031°59'0 0.1
2017-Dec-13 10:00N 46°57' E 031°59'0 0.0
2017-Dec-13 09:30N 46°57' E 031°59'0 0.0
2017-Dec-13 09:00N 46°57' E 031°59'0 0.0
2017-Dec-13 08:30N 46°57' E 031°59'0 0.0
2017-Dec-13 08:01N 46°57' E 031°59'0 0.0
2017-Dec-13 07:31N 46°57' E 031°59'0 0.0
2017-Dec-13 07:01N 46°57' E 031°59'0 0.0
2017-Dec-13 06:31N 46°57' E 031°59'0 0.0
2017-Dec-13 06:01N 46°57' E 031°59'0 0.0
2017-Dec-13 05:30N 46°57' E 031°59'0 0.0
2017-Dec-13 05:00N 46°57' E 031°59'0 0.0
2017-Dec-13 04:31N 46°57' E 031°59'0 0.0
2017-Dec-13 04:01N 46°57' E 031°59'0 0.0
2017-Dec-13 03:31N 46°57' E 031°59'0 0.0
2017-Dec-13 03:00N 46°57' E 031°59'0 0.2
2017-Dec-13 02:30N 46°57' E 031°59'0 0.0
2017-Dec-13 02:01N 46°57' E 031°59'0 0.0
2017-Dec-13 01:31N 46°57' E 031°59'0 0.0
2017-Dec-13 01:01N 46°57' E 031°59'0 0.0
2017-Dec-13 00:30N 46°57' E 031°59'0 0.0
2017-Dec-13 00:01N 46°57' E 031°59'0 0.0
2017-Dec-12 23:31N 46°57' E 031°59'0 0.0
2017-Dec-12 23:01N 46°57' E 031°59'0 0.0
2017-Dec-12 22:30N 46°57' E 031°59'0 0.0
2017-Dec-12 22:00N 46°57' E 031°59'0 0.0
2017-Dec-12 21:30N 46°57' E 031°59'0 0.0
2017-Dec-12 21:00N 46°57' E 031°59'0 0.1
2017-Dec-12 20:30N 46°57' E 031°59'0 0.1
2017-Dec-12 20:00N 46°57' E 031°59'0 0.0
2017-Dec-12 19:30N 46°57' E 031°59'  
Track history (hours):
 
Tides and Currents Weather Stations Pressure Air Temp Water Temp Dewpoint Dewpoint Depression Visibility Wind Speed Wind Dir Waves Ship Positions

Pereiaslavskyi

Last reported at 2017-Dec-22 19:26 UTC. Time now 2018-Feb-25 13:57 UTC.
Position N 46°32' E 032°08'.
Warning: this ship's position is months out of date.

Length 28 m; draft 1.7 m.

Type: Tug. MMSI: 272743000.

Date/timePositionNaut miles runAvg speedWind from/ knotsBaromVisibWave heightAir tempDewpointWater temp
2017-Dec-22 19:26N 46°32' E 032°08'2 3.5
2017-Dec-22 18:57N 46°32' E 032°06'2 3.7
2017-Dec-22 18:30N 46°33' E 032°04'2 3.8
2017-Dec-22 18:00N 46°34' E 032°02'2 3.8
2017-Dec-22 17:31N 46°36' E 032°00'2 3.8
2017-Dec-22 17:00N 46°37' E 031°58'2 3.8
2017-Dec-22 16:30N 46°39' E 031°57'2 3.7
2017-Dec-22 16:00N 46°40' E 031°56'2 3.9
2017-Dec-22 15:31N 46°42' E 031°56'2 3.8
2017-Dec-22 15:00N 46°44' E 031°55'2 3.7
2017-Dec-22 14:30N 46°45' E 031°53'2 4.0
2017-Dec-22 14:00N 46°47' E 031°53'2 3.7
2017-Dec-22 13:30N 46°49' E 031°54'2 3.9
2017-Dec-22 13:00N 46°51' E 031°56'2 3.9
2017-Dec-22 12:31N 46°52' E 031°58'2 3.8
2017-Dec-22 12:01N 46°53' E 032°00'2 3.8
2017-Dec-22 11:30N 46°55' E 032°01'2 3.3
2017-Dec-22 11:00N 46°56' E 031°59'1 1.0
2017-Dec-22 10:30N 46°57' E 031°59'0 0.0
2017-Dec-22 10:00N 46°57' E 031°59'0 0.1
2017-Dec-22 09:31N 46°57' E 031°59'0 0.1
2017-Dec-22 09:00N 46°57' E 031°59'0 0.0
2017-Dec-22 08:30N 46°57' E 031°59'0 0.0
2017-Dec-22 08:00N 46°57' E 031°59'0 0.0
2017-Dec-22 07:30N 46°57' E 031°59'0 0.0
2017-Dec-22 07:00N 46°57' E 031°59'0 0.0
2017-Dec-22 06:30N 46°57' E 031°59'0 0.1
2017-Dec-22 06:00N 46°57' E 031°59'0 0.5
2017-Dec-22 05:31N 46°57' E 031°59'0 0.0
2017-Dec-22 05:01N 46°57' E 031°59'0 0.5
2017-Dec-22 04:30N 46°57' E 031°59'0 0.3
2017-Dec-22 04:00N 46°57' E 031°59'0 0.2
2017-Dec-22 03:30N 46°57' E 031°59'0 0.2
2017-Dec-22 03:01N 46°57' E 031°59'0 0.0
2017-Dec-22 02:30N 46°57' E 031°59'0 0.0
2017-Dec-22 02:00N 46°57' E 031°59'0 0.0
2017-Dec-22 01:31N 46°57' E 031°59'0 0.0
2017-Dec-22 01:00N 46°57' E 031°59'0 0.0
2017-Dec-22 00:30N 46°57' E 031°59'0 0.0
2017-Dec-22 00:01N 46°57' E 031°59'0 0.0
2017-Dec-21 23:31N 46°57' E 031°59'0 0.0
2017-Dec-21 23:00N 46°57' E 031°59'0 0.0
2017-Dec-21 22:30N 46°57' E 031°59'0 0.0
2017-Dec-21 22:00N 46°57' E 031°59'0 0.0
2017-Dec-21 21:30N 46°57' E 031°59'0 0.0
2017-Dec-21 21:01N 46°57' E 031°59'0 0.0
2017-Dec-21 20:31N 46°57' E 031°59'0 0.4
2017-Dec-21 20:00N 46°57' E 031°59'0 0.4
2017-Dec-21 19:30N 46°56' E 031°59'0 0.7
2017-Dec-21 19:01N 46°56' E 031°58'0 0.1
2017-Dec-21 18:30N 46°56' E 031°58'1 1.3
2017-Dec-21 18:00N 46°57' E 031°59'0 0.0
2017-Dec-21 17:30N 46°57' E 031°59'0 0.0
2017-Dec-21 17:01N 46°57' E 031°59'0 0.0
2017-Dec-21 16:31N 46°57' E 031°59'0 0.0
2017-Dec-21 16:00N 46°57' E 031°59'0 0.0
2017-Dec-21 15:30N 46°57' E 031°59'0 0.0
2017-Dec-21 15:00N 46°57' E 031°59'0 0.0
2017-Dec-21 14:30N 46°57' E 031°59'0 0.0
2017-Dec-21 14:00N 46°57' E 031°59'0 0.0
2017-Dec-21 13:30N 46°57' E 031°59'0 0.0
2017-Dec-21 13:00N 46°57' E 031°59'0 0.1
2017-Dec-21 12:30N 46°57' E 031°59'0 0.2
2017-Dec-21 12:00N 46°57' E 031°59'0 0.0
2017-Dec-21 11:30N 46°57' E 031°59'0 0.0
2017-Dec-21 11:00N 46°57' E 031°59'0 0.0
2017-Dec-21 10:30N 46°57' E 031°59'0 0.0
2017-Dec-21 10:00N 46°57' E 031°59'0 0.0
2017-Dec-21 09:31N 46°57' E 031°59'0 0.0
2017-Dec-21 09:00N 46°57' E 031°59'0 0.2
2017-Dec-21 08:30N 46°56' E 031°59'0 0.3
2017-Dec-21 08:00N 46°56' E 031°59'1 1.0
2017-Dec-21 07:30N 46°56' E 031°58'1 2.4
2017-Dec-21 07:01N 46°56' E 031°57'1 2.8
2017-Dec-21 06:30N 46°56' E 031°55'1 2.9
2017-Dec-21 06:01N 46°58' E 031°56'2 3.1
2017-Dec-21 05:31N 46°59' E 031°58'1 2.8
2017-Dec-21 05:01N 47°00' E 031°59'2 2.1
2017-Dec-21 04:18N 47°01' E 031°57'2 3.1
2017-Dec-21 03:46N 46°60' E 031°55'0 0.0
2017-Dec-19 15:11N 46°60' E 031°54'1 3.0
2017-Dec-19 14:51N 47°00' E 031°56'2 2.7
2017-Dec-19 14:12N 47°01' E 031°58'1 2.9
2017-Dec-19 14:00N 47°00' E 031°58'1 1.2
2017-Dec-19 13:31N 46°60' E 031°59'0 0.0
2017-Dec-19 13:01N 46°60' E 031°59'1 1.9
2017-Dec-19 12:30N 46°59' E 031°58'1 1.5
2017-Dec-19 12:00N 46°59' E 031°58'1 1.6
2017-Dec-19 11:30N 46°59' E 031°58'1 1.1
2017-Dec-19 11:01N 46°59' E 031°57'2 3.5
2017-Dec-19 10:30N 46°57' E 031°55'2 3.1
2017-Dec-19 10:00N 46°56' E 031°56'1 3.0
2017-Dec-19 09:30N 46°56' E 031°58'1 1.6
2017-Dec-19 09:01N 46°56' E 031°59'0 0.1
2017-Dec-19 08:31N 46°56' E 031°59'0 0.8
2017-Dec-19 08:00N 46°57' E 031°59'0 0.0
2017-Dec-19 07:30N 46°57' E 031°59'0 0.0
2017-Dec-19 07:01N 46°57' E 031°59'0 0.0
2017-Dec-19 06:31N 46°57' E 031°59'0 0.5
2017-Dec-19 06:00N 46°56' E 031°59'0 0.5
2017-Dec-19 05:30N 46°57' E 031°59'0 0.0
2017-Dec-19 05:00N 46°57' E 031°59'0 0.0
2017-Dec-19 04:30N 46°57' E 031°59'0 0.0
2017-Dec-19 04:00N 46°57' E 031°59'0 0.0
2017-Dec-19 03:30N 46°57' E 031°59'0 0.0
2017-Dec-19 03:01N 46°57' E 031°59'0 0.0
2017-Dec-19 02:31N 46°57' E 031°59'0 0.0
2017-Dec-19 02:00N 46°57' E 031°59'0 0.0
2017-Dec-19 01:30N 46°57' E 031°59'0 0.2
2017-Dec-19 01:00N 46°57' E 031°59'0 0.3
2017-Dec-19 00:30N 46°57' E 031°59'0 0.1
2017-Dec-19 00:00N 46°57' E 031°59'0 0.0
2017-Dec-18 23:31N 46°57' E 031°59'0 0.0
2017-Dec-18 23:01N 46°57' E 031°59'0 0.0
2017-Dec-18 22:31N 46°57' E 031°59'0 0.0
2017-Dec-18 22:01N 46°57' E 031°59'0 0.0
2017-Dec-18 21:30N 46°57' E 031°59'0 0.0
2017-Dec-18 21:00N 46°57' E 031°59'0 0.0
2017-Dec-18 13:39N 46°57' E 031°59'0 0.0
2017-Dec-18 13:31N 46°57' E 031°59'0 0.0
2017-Dec-18 13:00N 46°57' E 031°59'0 0.0
2017-Dec-18 12:30N 46°57' E 031°59'0 0.0
2017-Dec-18 12:00N 46°57' E 031°59'0 0.0
2017-Dec-18 11:31N 46°57' E 031°59'0 0.0
2017-Dec-18 11:00N 46°57' E 031°59'0 0.0
2017-Dec-18 10:30N 46°57' E 031°59'0 0.5
2017-Dec-18 10:00N 46°57' E 031°59'0 0.1
2017-Dec-18 09:30N 46°57' E 031°59'0 0.3
2017-Dec-18 09:01N 46°56' E 031°59'0 1.0
2017-Dec-18 08:30N 46°57' E 031°59'1 1.0
2017-Dec-18 08:00N 46°57' E 031°59'0 0.1
2017-Dec-18 07:31N 46°57' E 031°59'0 0.1
2017-Dec-18 07:01N 46°57' E 031°59'0 0.0
2017-Dec-18 06:30N 46°57' E 031°59'0 0.0
2017-Dec-18 06:01N 46°57' E 031°59'0 0.0
2017-Dec-18 05:30N 46°57' E 031°59'0 0.0
2017-Dec-18 05:00N 46°57' E 031°59'0 0.0
2017-Dec-18 04:30N 46°57' E 031°59'0 0.0
2017-Dec-18 04:00N 46°57' E 031°59'0 0.0
2017-Dec-18 03:30N 46°57' E 031°59'0 0.0
2017-Dec-18 03:01N 46°57' E 031°59'0 0.0
2017-Dec-18 02:30N 46°57' E 031°59'0 0.0
2017-Dec-18 02:01N 46°57' E 031°59'0 0.0
2017-Dec-18 01:31N 46°57' E 031°59'0 0.0
2017-Dec-18 01:00N 46°57' E 031°59'0 0.0
2017-Dec-18 00:30N 46°57' E 031°59'0 0.0
2017-Dec-18 00:01N 46°57' E 031°59'0 0.0
2017-Dec-17 23:30N 46°57' E 031°59'0 0.0
2017-Dec-17 23:00N 46°57' E 031°59'0 0.0
2017-Dec-17 22:30N 46°57' E 031°59'0 0.0
2017-Dec-17 22:00N 46°57' E 031°59'0 0.0
2017-Dec-17 21:30N 46°57' E 031°59'0 0.0
2017-Dec-17 21:00N 46°57' E 031°59'0 0.0
2017-Dec-17 20:31N 46°57' E 031°59'0 0.0
2017-Dec-17 20:00N 46°57' E 031°59'0 0.0
2017-Dec-17 19:31N 46°57' E 031°59'0 0.0
2017-Dec-17 19:00N 46°57' E 031°59'0 0.0
2017-Dec-17 18:31N 46°57' E 031°59'0 0.0
2017-Dec-17 18:01N 46°57' E 031°59'0 0.0
2017-Dec-17 17:30N 46°57' E 031°59'0 0.0
2017-Dec-17 17:01N 46°57' E 031°59'0 0.0
2017-Dec-17 16:30N 46°57' E 031°59'0 0.0
2017-Dec-17 16:00N 46°57' E 031°59'0 0.0
2017-Dec-17 15:31N 46°57' E 031°59'0 0.0
2017-Dec-17 15:00N 46°57' E 031°59'0 0.0
2017-Dec-17 14:30N 46°57' E 031°59'0 0.0
2017-Dec-17 14:00N 46°57' E 031°59'0 0.0
2017-Dec-17 13:30N 46°57' E 031°59'0 0.0
2017-Dec-17 13:01N 46°57' E 031°59'0 0.0
2017-Dec-17 12:30N 46°57' E 031°59'0 0.0
2017-Dec-17 12:00N 46°57' E 031°59'0 0.0
2017-Dec-17 11:30N 46°57' E 031°59'0 0.4
2017-Dec-17 11:00N 46°57' E 031°59'0 0.6
2017-Dec-17 10:31N 46°56' E 031°59'0 0.4
2017-Dec-17 10:01N 46°56' E 031°59'0 0.3
2017-Dec-17 09:31N 46°57' E 031°59'0 0.0
2017-Dec-17 09:00N 46°57' E 031°59'0 0.5
2017-Dec-17 08:30N 46°57' E 031°59'0 0.0
2017-Dec-17 08:00N 46°57' E 031°59'0 0.0
2017-Dec-17 07:30N 46°57' E 031°59'0 0.0
2017-Dec-17 07:00N 46°57' E 031°59'0 0.0
2017-Dec-17 06:31N 46°57' E 031°59'0 0.0
2017-Dec-17 06:01N 46°57' E 031°59'0 0.0
2017-Dec-17 05:30N 46°57' E 031°59'0 0.0
2017-Dec-17 05:00N 46°57' E 031°59'0 0.0
2017-Dec-17 04:30N 46°57' E 031°59'0 0.0
2017-Dec-17 04:00N 46°57' E 031°59'0 0.0
2017-Dec-17 03:31N 46°57' E 031°59'0 0.0
2017-Dec-17 03:00N 46°57' E 031°59'0 0.0
2017-Dec-17 02:31N 46°57' E 031°59'0 0.0
2017-Dec-17 02:01N 46°57' E 031°59'0 0.0
2017-Dec-17 01:30N 46°57' E 031°59'0 0.0
2017-Dec-17 01:00N 46°57' E 031°59'0 0.0
2017-Dec-17 00:31N 46°57' E 031°59'0 0.0
2017-Dec-17 00:01N 46°57' E 031°59'0 0.0
2017-Dec-16 23:30N 46°57' E 031°59'0 0.0
2017-Dec-16 23:00N 46°57' E 031°59'0 0.0
2017-Dec-16 22:31N 46°57' E 031°59'0 0.0
2017-Dec-16 22:00N 46°57' E 031°59'0 0.0
2017-Dec-16 21:30N 46°57' E 031°59'0 0.3
2017-Dec-16 21:01N 46°56' E 031°59'0 0.3
2017-Dec-16 20:31N 46°57' E 031°59'0 0.0
2017-Dec-16 20:01N 46°57' E 031°59'0 0.0
2017-Dec-16 19:30N 46°57' E 031°59'0 0.0
2017-Dec-16 19:00N 46°57' E 031°59'0 0.0
2017-Dec-16 18:30N 46°57' E 031°59'0 0.0
2017-Dec-16 18:00N 46°57' E 031°59'0 0.0
2017-Dec-16 17:30N 46°57' E 031°59'0 0.0
2017-Dec-16 17:00N 46°57' E 031°59'0 0.0
2017-Dec-16 16:30N 46°57' E 031°59'0 0.0
2017-Dec-16 16:00N 46°57' E 031°59'0 0.0
2017-Dec-16 15:31N 46°57' E 031°59'0 0.0
2017-Dec-16 15:00N 46°57' E 031°59'0 0.0
2017-Dec-16 14:30N 46°57' E 031°59'0 0.0
2017-Dec-16 14:00N 46°57' E 031°59'0 0.3
2017-Dec-16 13:30N 46°56' E 031°59'0 0.3
2017-Dec-16 13:01N 46°57' E 031°59'0 0.0
2017-Dec-16 12:31N 46°57' E 031°59'0 0.0
2017-Dec-16 12:01N 46°57' E 031°59'0 0.4
2017-Dec-16 11:30N 46°56' E 031°59'0 0.4
2017-Dec-16 11:01N 46°57' E 031°59'0 0.0
2017-Dec-16 10:31N 46°57' E 031°59'0 0.0
2017-Dec-16 10:00N 46°57' E 031°59'0 0.0
2017-Dec-16 09:30N 46°57' E 031°59'0 0.0
2017-Dec-16 09:01N 46°57' E 031°59'0 0.0
2017-Dec-16 08:30N 46°57' E 031°59'0 0.0
2017-Dec-16 08:01N 46°57' E 031°59'0 0.0
2017-Dec-16 07:30N 46°57' E 031°59'0 0.0
2017-Dec-16 07:01N 46°57' E 031°59'0 0.0
2017-Dec-16 06:31N 46°57' E 031°59'0 0.0
2017-Dec-16 06:00N 46°57' E 031°59'0 0.0
2017-Dec-16 05:30N 46°57' E 031°59'0 0.0
2017-Dec-16 05:00N 46°57' E 031°59'0 0.0
2017-Dec-16 04:30N 46°57' E 031°59'0 0.0
2017-Dec-16 04:00N 46°57' E 031°59'0 0.0
2017-Dec-16 03:31N 46°57' E 031°59'0 0.0
2017-Dec-16 03:00N 46°57' E 031°59'0 0.0
2017-Dec-16 02:30N 46°57' E 031°59'0 0.0
2017-Dec-16 02:00N 46°57' E 031°59'0 0.0
2017-Dec-16 01:30N 46°57' E 031°59'0 0.0
2017-Dec-16 01:00N 46°57' E 031°59'0 0.0
2017-Dec-16 00:30N 46°57' E 031°59'0 0.0
2017-Dec-16 00:00N 46°57' E 031°59'0 0.0
2017-Dec-15 23:30N 46°57' E 031°59'0 0.0
2017-Dec-15 23:00N 46°57' E 031°59'0 0.0
2017-Dec-15 22:30N 46°57' E 031°59'0 0.0
2017-Dec-15 22:00N 46°57' E 031°59'0 0.0
2017-Dec-15 21:31N 46°57' E 031°59'0 0.0
2017-Dec-15 21:00N 46°57' E 031°59'0 0.0
2017-Dec-15 20:30N 46°57' E 031°59'0 0.0
2017-Dec-15 20:00N 46°57' E 031°59'0 0.0
2017-Dec-15 19:31N 46°57' E 031°59'0 0.0
2017-Dec-15 19:01N 46°57' E 031°59'0 0.0
2017-Dec-15 18:30N 46°57' E 031°59'0 0.0
2017-Dec-15 18:00N 46°57' E 031°59'0 0.0
2017-Dec-15 17:31N 46°57' E 031°59'0 0.0
2017-Dec-15 17:01N 46°57' E 031°59'0 0.0
2017-Dec-15 16:31N 46°57' E 031°59'0 0.5
2017-Dec-15 16:01N 46°57' E 031°59'0 0.6
2017-Dec-15 15:31N 46°57' E 031°60'1 1.2
2017-Dec-15 15:01N 46°57' E 031°59'0 0.1
2017-Dec-15 14:30N 46°57' E 031°59'0 0.5
2017-Dec-15 14:00N 46°57' E 031°59'0 0.0
2017-Dec-15 13:31N 46°57' E 031°59'0 1.0
2017-Dec-15 13:01N 46°57' E 031°60'0 0.4
2017-Dec-15 12:31N 46°57' E 031°60'0 0.8
2017-Dec-15 12:00N 46°57' E 031°59'0 0.1
2017-Dec-15 11:30N 46°57' E 031°59'0 0.0
2017-Dec-15 11:00N 46°57' E 031°59'0 0.0
2017-Dec-15 10:30N 46°57' E 031°59'0 0.0
2017-Dec-15 10:00N 46°57' E 031°59'0 0.0
2017-Dec-15 09:30N 46°57' E 031°59'0 0.0
2017-Dec-15 09:00N 46°57' E 031°59'0 0.0
2017-Dec-15 08:30N 46°57' E 031°59'0 0.0
2017-Dec-15 08:00N 46°57' E 031°59'0 0.0
2017-Dec-15 07:30N 46°57' E 031°59'0 0.0
2017-Dec-15 07:00N 46°57' E 031°59'0 0.0
2017-Dec-15 06:31N 46°57' E 031°59'0 0.0
2017-Dec-15 06:00N 46°57' E 031°59'0 0.0
2017-Dec-15 05:31N 46°57' E 031°59'0 0.0
2017-Dec-15 05:00N 46°57' E 031°59'0 0.0
2017-Dec-15 04:30N 46°57' E 031°59'0 0.0
2017-Dec-15 04:00N 46°57' E 031°59'0 0.0
2017-Dec-15 02:30N 46°57' E 031°59'0 0.0
2017-Dec-15 01:01N 46°57' E 031°59'0 0.0
2017-Dec-15 00:30N 46°57' E 031°59'0 0.0
2017-Dec-14 18:31N 46°57' E 031°59'0 0.0
2017-Dec-14 18:00N 46°57' E 031°59'0 0.0
2017-Dec-14 17:30N 46°57' E 031°59'0 0.0
2017-Dec-14 17:00N 46°57' E 031°59'0 0.0
2017-Dec-14 16:30N 46°57' E 031°59'0 0.0
2017-Dec-14 16:01N 46°57' E 031°59'0 0.0
2017-Dec-14 15:01N 46°57' E 031°59'0 0.0
2017-Dec-14 14:30N 46°57' E 031°59'0 0.0
2017-Dec-14 14:01N 46°57' E 031°59'0 0.0
2017-Dec-14 13:30N 46°57' E 031°59'0 0.3
2017-Dec-14 13:01N 46°57' E 031°59'0 0.2
2017-Dec-14 12:31N 46°57' E 031°59'0 0.4
2017-Dec-14 12:00N 46°57' E 031°59'0 0.0
2017-Dec-14 11:30N 46°57' E 031°59'0 0.0
2017-Dec-14 11:00N 46°57' E 031°59'0 0.0
2017-Dec-14 10:30N 46°57' E 031°59'0 0.0
2017-Dec-14 10:00N 46°57' E 031°59'0 0.0
2017-Dec-14 09:31N 46°57' E 031°59'0 0.0
2017-Dec-14 09:00N 46°57' E 031°59'0 0.0
2017-Dec-14 08:31N 46°57' E 031°59'0 0.0
2017-Dec-14 08:01N 46°57' E 031°59'0 0.0
2017-Dec-14 07:30N 46°57' E 031°59'0 0.0
2017-Dec-14 07:00N 46°57' E 031°59'0 0.0
2017-Dec-14 06:31N 46°57' E 031°59'0 0.0
2017-Dec-14 06:00N 46°57' E 031°59'0 0.0
2017-Dec-14 05:30N 46°57' E 031°59'0 0.0
2017-Dec-14 05:00N 46°57' E 031°59'0 0.0
2017-Dec-14 04:31N 46°57' E 031°59'0 0.0
2017-Dec-14 04:00N 46°57' E 031°59'0 0.0
2017-Dec-14 03:31N 46°57' E 031°59'0 0.0
2017-Dec-14 03:00N 46°57' E 031°59'0 0.0
2017-Dec-14 02:30N 46°57' E 031°59'0 0.0
2017-Dec-14 02:00N 46°57' E 031°59'0 0.0
2017-Dec-14 01:30N 46°57' E 031°59'0 0.0
2017-Dec-14 01:00N 46°57' E 031°59'0 0.0
2017-Dec-14 00:30N 46°57' E 031°59'0 0.0
2017-Dec-14 00:00N 46°57' E 031°59'0 0.0
2017-Dec-13 23:31N 46°57' E 031°59'0 0.0
2017-Dec-13 23:01N 46°57' E 031°59'0 0.0
2017-Dec-13 22:30N 46°57' E 031°59'0 0.0
2017-Dec-13 22:00N 46°57' E 031°59'0 0.0
2017-Dec-13 21:30N 46°57' E 031°59'0 0.0
2017-Dec-13 21:01N 46°57' E 031°59'0 0.0
2017-Dec-13 20:30N 46°57' E 031°59'0 0.0
2017-Dec-13 20:00N 46°57' E 031°59'0 0.0
2017-Dec-13 19:31N 46°57' E 031°59'0 0.0
2017-Dec-13 19:01N 46°57' E 031°59'0 0.0
2017-Dec-13 18:30N 46°57' E 031°59'0 0.0
2017-Dec-13 18:00N 46°57' E 031°59'0 0.1
2017-Dec-13 17:31N 46°57' E 031°59'0 0.3
2017-Dec-13 17:00N 46°56' E 031°59'0 0.3
2017-Dec-13 16:30N 46°57' E 031°59'0 0.0
2017-Dec-13 16:01N 46°57' E 031°59'0 0.0
2017-Dec-13 15:30N 46°57' E 031°59'0 0.0
2017-Dec-13 15:01N 46°57' E 031°59'0 0.0
2017-Dec-13 14:31N 46°57' E 031°59'0 0.4
2017-Dec-13 14:01N 46°57' E 031°59'0 0.8
2017-Dec-13 13:31N 46°56' E 031°59'0 0.2
2017-Dec-13 13:01N 46°56' E 031°59'0 0.4
2017-Dec-13 12:30N 46°56' E 031°59'0 0.5
2017-Dec-13 12:00N 46°57' E 031°59'0 0.6
2017-Dec-13 11:30N 46°57' E 031°59'0 0.6
2017-Dec-13 11:00N 46°57' E 031°60'0 0.7
2017-Dec-13 10:31N 46°57' E 031°59'0 0.1
2017-Dec-13 10:00N 46°57' E 031°59'0 0.0
2017-Dec-13 09:30N 46°57' E 031°59'0 0.0
2017-Dec-13 09:00N 46°57' E 031°59'0 0.0
2017-Dec-13 08:30N 46°57' E 031°59'0 0.0
2017-Dec-13 08:01N 46°57' E 031°59'0 0.0
2017-Dec-13 07:31N 46°57' E 031°59'0 0.0
2017-Dec-13 07:01N 46°57' E 031°59'0 0.0
2017-Dec-13 06:31N 46°57' E 031°59'0 0.0
2017-Dec-13 06:01N 46°57' E 031°59'0 0.0
2017-Dec-13 05:30N 46°57' E 031°59'0 0.0
2017-Dec-13 05:00N 46°57' E 031°59'0 0.0
2017-Dec-13 04:31N 46°57' E 031°59'0 0.0
2017-Dec-13 04:01N 46°57' E 031°59'0 0.0
2017-Dec-13 03:31N 46°57' E 031°59'0 0.0
2017-Dec-13 03:00N 46°57' E 031°59'0 0.2
2017-Dec-13 02:30N 46°57' E 031°59'0 0.0
2017-Dec-13 02:01N 46°57' E 031°59'0 0.0
2017-Dec-13 01:31N 46°57' E 031°59'0 0.0
2017-Dec-13 01:01N 46°57' E 031°59'0 0.0
2017-Dec-13 00:30N 46°57' E 031°59'0 0.0
2017-Dec-13 00:01N 46°57' E 031°59'0 0.0
2017-Dec-12 23:31N 46°57' E 031°59'0 0.0
2017-Dec-12 23:01N 46°57' E 031°59'0 0.0
2017-Dec-12 22:30N 46°57' E 031°59'0 0.0
2017-Dec-12 22:00N 46°57' E 031°59'0 0.0
2017-Dec-12 21:30N 46°57' E 031°59'0 0.0
2017-Dec-12 21:00N 46°57' E 031°59'0 0.1
2017-Dec-12 20:30N 46°57' E 031°59'0 0.1
2017-Dec-12 20:00N 46°57' E 031°59'0 0.0
2017-Dec-12 19:30N 46°57' E 031°59'  

Dump ship's entire track history